Time;durP1;ratioP1;P1;durP2;ratioP2;P2;SDS_P1;SDS_P2;PMS_P1;PMS_P2;Temp;Humidity;BMP_temperature;BMP_pressure;BME280_temperature;BME280_humidity;BME280_pressure;Samples;Min_cycle;Max_cycle;Signal;HPM_P1;HPM_P2
2023/10/17 00:01:21;;;;;;;23.30;10.10;;;;;;;4.80;100.00;100923.25;5073637;28;20118;-80
2023/10/17 00:03:53;;;;;;;20.52;10.82;;;;;;;5.06;100.00;100952.59;5075221;28;20025;-82
2023/10/17 00:06:22;;;;;;;24.02;11.82;;;;;;;5.12;100.00;100950.03;5075854;28;20025;-83
2023/10/17 00:08:51;;;;;;;20.67;10.52;;;;;;;5.18;100.00;100951.91;5076368;28;20021;-81
2023/10/17 00:11:17;;;;;;;18.23;10.45;;;;;;;5.19;100.00;100953.53;5077932;28;20031;-81
2023/10/17 00:13:52;;;;;;;21.67;10.45;;;;;;;5.19;100.00;100942.19;5087381;28;20025;-81
2023/10/17 00:16:18;;;;;;;22.13;10.75;;;;;;;5.27;100.00;100956.97;5085605;28;20107;-81
2023/10/17 00:18:45;;;;;;;25.90;13.38;;;;;;;5.36;100.00;100948.66;5077351;28;20472;-81
2023/10/17 00:21:22;;;;;;;24.85;12.02;;;;;;;5.48;100.00;100950.00;5074806;28;20019;-79
2023/10/17 00:23:52;;;;;;;24.90;11.80;;;;;;;5.55;100.00;100950.63;5075029;28;20028;-80
2023/10/17 00:26:19;;;;;;;24.70;12.55;;;;;;;5.59;100.00;100951.34;5056742;28;20025;-81
2023/10/17 00:28:49;;;;;;;29.42;12.45;;;;;;;5.55;100.00;100930.78;5074338;28;20040;-80
2023/10/17 00:31:15;;;;;;;27.45;12.55;;;;;;;5.72;100.00;100954.25;5073355;28;20363;-81
2023/10/17 00:33:47;;;;;;;27.35;13.02;;;;;;;5.72;100.00;100949.38;5072402;28;20028;-81
2023/10/17 00:36:16;;;;;;;26.80;11.85;;;;;;;5.62;100.00;100929.81;5072128;28;20028;-80
2023/10/17 00:38:49;;;;;;;24.10;13.65;;;;;;;5.82;100.00;100958.84;5073847;28;20070;-81
2023/10/17 00:41:50;;;;;;;26.83;10.95;;;;;;;5.82;100.00;100967.38;5076582;28;20025;-80
2023/10/17 00:44:06;;;;;;;24.02;12.43;;;;;;;5.81;100.00;100955.22;5072185;28;20029;-80
2023/10/17 00:46:33;;;;;;;33.55;13.98;;;;;;;5.82;100.00;100956.03;5076549;28;20029;-80
2023/10/17 00:48:58;;;;;;;24.42;12.82;;;;;;;5.80;100.00;100950.78;5078735;28;20133;-79
2023/10/17 00:51:24;;;;;;;32.10;14.60;;;;;;;5.78;100.00;100949.66;5077455;28;20044;-79
2023/10/17 00:53:50;;;;;;;25.55;12.95;;;;;;;5.73;100.00;100951.00;5077365;28;20533;-82
2023/10/17 00:56:17;;;;;;;25.98;13.07;;;;;;;5.66;100.00;100942.66;5077087;28;20041;-79
2023/10/17 00:58:43;;;;;;;30.48;14.27;;;;;;;5.50;100.00;100931.31;5077860;28;20059;-79
2023/10/17 01:01:20;;;;;;;21.92;13.38;;;;;;;5.44;100.00;100927.44;5077105;28;20365;-79
2023/10/17 01:03:51;;;;;;;27.17;13.63;;;;;;;5.56;100.00;100948.56;5076115;28;20035;-79
2023/10/17 01:06:36;;;;;;;;;;;;;;;5.56;100.00;100954.25;5075887;28;20496;-79
2023/10/17 01:09:09;;;;;;;29.08;13.25;;;;;;;5.47;100.00;100945.56;5076147;28;19920;-79
2023/10/17 01:11:40;;;;;;;26.23;13.90;;;;;;;5.43;100.00;100948.50;5077087;28;20377;-79
2023/10/17 01:14:09;;;;;;;29.80;14.30;;;;;;;5.33;100.00;100939.00;5075888;28;20029;-80
2023/10/17 01:16:39;;;;;;;29.70;14.30;;;;;;;5.31;100.00;100949.19;5076861;28;20098;-81
2023/10/17 01:19:07;;;;;;;27.45;12.60;;;;;;;5.16;100.00;100930.91;5076898;28;20102;-78
2023/10/17 01:21:35;;;;;;;28.08;13.20;;;;;;;5.11;100.00;100932.25;5076964;28;20013;-81
2023/10/17 01:24:04;;;;;;;27.23;15.00;;;;;;;5.18;100.00;100951.13;5076444;28;20028;-79
2023/10/17 01:26:31;;;;;;;25.77;12.02;;;;;;;5.15;100.00;100949.19;5076764;28;20035;-79
2023/10/17 01:28:56;;;;;;;22.10;12.13;;;;;;;5.10;100.00;100944.03;5075468;28;20141;-81
2023/10/17 01:31:24;;;;;;;27.92;11.90;;;;;;;5.06;100.00;100948.97;5075672;28;20078;-79
2023/10/17 01:33:59;;;;;;;30.20;12.68;;;;;;;5.01;100.00;100953.13;5075862;28;20090;-80
2023/10/17 01:36:25;;;;;;;23.30;11.40;;;;;;;4.94;100.00;100948.41;5076131;28;20024;-79
2023/10/17 01:38:54;;;;;;;25.55;12.30;;;;;;;4.90;100.00;100950.53;5075637;28;20431;-80
2023/10/17 01:41:20;;;;;;;23.08;12.10;;;;;;;4.88;100.00;100950.16;5074926;28;20028;-79
2023/10/17 01:43:47;;;;;;;26.50;12.05;;;;;;;4.68;100.00;100926.75;5057855;28;20024;-79
2023/10/17 01:46:21;;;;;;;24.27;13.07;;;;;;;4.86;100.00;100965.97;5074375;28;20166;-81
2023/10/17 01:48:48;;;;;;;21.50;11.40;;;;;;;4.84;100.00;100957.94;5075753;28;20032;-81
2023/10/17 01:51:16;;;;;;;20.95;12.20;;;;;;;4.72;100.00;100944.44;5074291;28;20027;-81
2023/10/17 01:53:48;;;;;;;26.88;12.05;;;;;;;4.73;100.00;100948.09;5057841;28;20082;-80
2023/10/17 01:56:14;;;;;;;25.63;12.68;;;;;;;4.75;100.00;100971.91;5074640;28;20056;-82
2023/10/17 01:58:58;;;;;;;22.90;12.40;;;;;;;4.76;100.00;100958.53;5076096;28;20052;-79
2023/10/17 02:01:25;;;;;;;25.27;12.07;;;;;;;4.73;100.00;100953.75;5074823;28;20106;-80
2023/10/17 02:04:05;;;;;;;24.67;11.85;;;;;;;4.66;100.00;100954.69;5075706;28;20334;-82
2023/10/17 02:06:38;;;;;;;22.73;12.25;;;;;;;4.63;100.00;100957.59;5075333;28;20031;-79
2023/10/17 02:09:55;;;;;;;29.42;13.48;;;;;;;4.54;100.00;100946.06;5057521;28;20033;-81
2023/10/17 02:12:00;;;;;;;28.55;12.32;;;;;;;4.51;100.00;100948.50;5058560;28;20040;-79
2023/10/17 02:14:26;;;;;;;24.13;11.52;;;;;;;4.60;100.00;100952.81;5074916;28;20032;-80
2023/10/17 02:16:55;;;;;;;23.33;12.32;;;;;;;4.56;100.00;100952.09;5075532;28;20024;-79
2023/10/17 02:19:25;;;;;;;24.77;12.32;;;;;;;4.57;100.00;100953.66;5074956;28;20025;-81
2023/10/17 02:22:00;;;;;;;22.27;11.80;;;;;;;4.51;100.00;100956.22;5074756;28;20099;-81
2023/10/17 02:24:29;;;;;;;21.55;11.63;;;;;;;4.43;100.00;100947.06;5076216;28;20165;-80
2023/10/17 02:26:56;;;;;;;25.02;11.93;;;;;;;4.47;100.00;100953.44;5074978;28;20033;-81
2023/10/17 02:29:25;;;;;;;26.67;12.00;;;;;;;4.48;100.00;100960.72;5075980;28;20024;-82
2023/10/17 02:31:58;;;;;;;24.08;13.18;;;;;;;4.45;100.00;100958.78;5074353;28;20040;-83
2023/10/17 02:34:29;;;;;;;26.38;11.65;;;;;;;4.36;100.00;100944.41;5075509;28;20040;-81
2023/10/17 02:36:56;;;;;;;;;;;;;;;4.39;100.00;100962.53;5076049;28;20020;-81
2023/10/17 02:39:21;;;;;;;29.02;13.20;;;;;;;4.33;100.00;100962.22;5073999;28;19908;-81
2023/10/17 02:42:06;;;;;;;24.08;11.50;;;;;;;4.30;100.00;100953.81;5074429;28;20130;-81
2023/10/17 02:44:39;;;;;;;21.95;12.93;;;;;;;4.29;100.00;100953.03;5074599;28;20103;-80
2023/10/17 02:47:07;;;;;;;23.65;12.27;;;;;;;4.25;100.00;100955.13;5074908;28;20037;-80
2023/10/17 02:49:37;;;;;;;25.60;12.38;;;;;;;4.20;100.00;100949.16;5075715;28;20008;-79
2023/10/17 02:52:07;;;;;;;29.05;13.18;;;;;;;4.21;100.00;100951.56;5074063;28;20044;-81
2023/10/17 02:54:55;;;;;;;23.23;11.88;;;;;;;4.22;100.00;100955.97;5075471;28;20151;-79
2023/10/17 02:57:20;;;;;;;26.95;12.93;;;;;;;4.20;100.00;100952.78;5092952;28;20119;-80
2023/10/17 02:59:47;;;;;;;21.75;11.65;;;;;;;4.19;100.00;100958.88;5095970;28;20026;-80
2023/10/17 03:02:13;;;;;;;24.85;12.13;;;;;;;4.04;100.00;100939.34;5077548;28;20024;-80
2023/10/17 03:04:42;;;;;;;24.33;11.98;;;;;;;4.17;100.00;100973.44;5094976;28;20027;-79
2023/10/17 03:07:11;;;;;;;26.42;12.57;;;;;;;4.16;100.00;100969.03;5095440;28;20029;-78
2023/10/17 03:09:38;;;;;;;23.80;11.63;;;;;;;4.14;100.00;100963.00;5077097;28;20363;-79
2023/10/17 03:17:16;;;;;;;22.40;12.23;;;;;;;4.08;100.00;100968.34;5095030;28;20032;-80
2023/10/17 03:19:42;;;;;;;24.92;12.60;;;;;;;4.10;100.00;100967.13;5095015;28;20024;-80
2023/10/17 03:22:27;;;;;;;32.13;13.65;;;;;;;4.13;100.00;100977.56;5094367;28;20089;-79
2023/10/17 03:25:09;;;;;;;26.00;13.10;;;;;;;4.08;100.00;100976.03;5095109;28;20420;-80
2023/10/17 03:27:37;;;;;;;26.92;13.73;;;;;;;4.11;100.00;100968.75;5094695;28;20020;-80
2023/10/17 03:30:10;;;;;;;29.00;13.43;;;;;;;4.10;100.00;100979.25;5095142;28;20027;-79
2023/10/17 03:32:44;;;;;;;33.80;14.55;;;;;;;4.08;100.00;100970.38;5060795;28;20078;-80
2023/10/17 03:35:20;;;;;;;33.08;15.35;;;;;;;4.11;100.00;100974.41;5078838;28;20031;-80
2023/10/17 03:37:56;;;;;;;27.10;13.30;;;;;;;3.98;100.00;100954.41;5093464;28;20374;-80
2023/10/17 03:40:41;;;;;;;27.65;13.43;;;;;;;3.88;100.00;100936.41;5076887;28;20054;-82
2023/10/17 03:43:14;;;;;;;27.63;12.98;;;;;;;4.12;100.00;100970.34;5094887;28;20035;-80
2023/10/17 03:46:04;;;;;;;22.88;13.23;;;;;;;4.14;100.00;100979.19;5095029;28;20046;-81
2023/10/17 03:48:29;;;;;;;22.85;12.90;;;;;;;4.06;100.00;100958.72;5080376;28;20085;-80
2023/10/17 03:51:08;;;;;;;29.92;13.52;;;;;;;4.15;100.00;100972.28;5094831;28;20032;-80
2023/10/17 03:53:42;;;;;;;29.10;13.48;;;;;;;4.20;100.00;100983.09;5095019;28;20118;-83
2023/10/17 03:56:11;;;;;;;28.15;13.38;;;;;;;4.22;100.00;100978.59;5094203;28;20048;-81
2023/10/17 03:58:49;;;;;;;25.60;13.05;;;;;;;4.25;100.00;100974.13;5094759;28;20054;-81
2023/10/17 04:01:32;;;;;;;30.42;14.93;;;;;;;4.31;100.00;100973.19;5065483;28;20093;-80
2023/10/17 04:04:00;;;;;;;35.35;16.08;;;;;;;4.33;100.00;100986.88;5094506;28;20028;-80
2023/10/17 04:06:41;;;;;;;25.85;13.90;;;;;;;4.30;100.00;100984.94;5094484;28;20084;-80
2023/10/17 04:12:03;;;;;;;28.13;14.40;;;;;;;4.29;100.00;100975.66;5094021;28;20116;-81
2023/10/17 04:14:33;;;;;;;33.13;16.23;;;;;;;4.31;100.00;100981.69;5097302;28;20024;-82
2023/10/17 04:17:05;;;;;;;32.10;15.15;;;;;;;4.34;100.00;100977.19;5098519;28;20020;-83
2023/10/17 04:19:32;;;;;;;36.30;15.07;;;;;;;4.39;100.00;100977.47;5099335;28;20031;-82
2023/10/17 04:22:06;;;;;;;27.58;14.52;;;;;;;4.42;100.00;100973.75;5083722;28;20032;-81
2023/10/17 04:24:38;;;;;;;24.40;14.93;;;;;;;4.49;100.00;100979.28;5102836;28;20032;-81
2023/10/17 04:27:30;;;;;;;30.95;14.88;;;;;;;4.55;100.00;100987.28;5088101;28;20206;-80
2023/10/17 04:29:58;;;;;;;31.10;14.63;;;;;;;4.47;100.00;100963.97;5083911;28;20089;-81
2023/10/17 04:32:39;;;;;;;28.02;15.63;;;;;;;4.69;100.00;100984.16;5098894;28;20027;-81
2023/10/17 04:35:07;;;;;;;30.83;13.88;;;;;;;4.75;100.00;100988.09;5098318;28;20525;-81
2023/10/17 04:37:32;;;;;;;25.90;14.45;;;;;;;4.77;100.00;100985.59;5079925;28;20035;-81
2023/10/17 04:40:27;;;;;;;29.73;14.13;;;;;;;4.86;100.00;100980.16;5080272;28;20032;-81
2023/10/17 04:45:14;;;;;;;27.33;15.45;;;;;;;4.92;100.00;100990.53;5077918;28;20035;-83
2023/10/17 04:47:46;;;;;;;25.67;14.55;;;;;;;4.98;100.00;100984.34;5098317;28;20496;-81
2023/10/17 04:50:12;;;;;;;32.03;14.85;;;;;;;4.99;100.00;100988.78;5063579;28;20417;-81
2023/10/17 04:52:42;;;;;;;34.05;15.98;;;;;;;4.88;100.00;100981.31;5080310;28;20036;-82
2023/10/17 04:55:40;;;;;;;31.27;16.00;;;;;;;4.92;100.00;100986.91;5097389;28;20400;-79
2023/10/17 04:59:11;;;;;;;25.77;13.07;;;;;;;4.88;100.00;100989.81;5098412;28;20035;-82
2023/10/17 05:03:46;;;;;;;32.35;14.10;;;;;;;4.81;100.00;101003.31;5097247;28;20032;-79
2023/10/17 06:18:26;;;;;;;41.33;18.58;;;;;;;6.07;100.00;101043.31;5074710;28;20121;-79
2023/10/17 06:29:44;;;;;;;39.20;16.50;;;;;;;6.51;100.00;101048.25;5073840;28;20028;-81
2023/10/17 06:34:27;;;;;;;34.13;17.98;;;;;;;6.85;100.00;101044.88;5072809;28;20036;-79
2023/10/17 06:37:07;;;;;;;35.65;17.15;;;;;;;7.00;100.00;101048.13;5072669;28;20043;-79
2023/10/17 06:39:50;;;;;;;39.10;17.38;;;;;;;7.16;100.00;101047.25;5075520;28;20025;-78
2023/10/17 06:42:18;;;;;;;37.72;19.15;;;;;;;7.33;100.00;101049.53;5074137;28;20032;-80
2023/10/17 06:45:01;;;;;;;44.13;19.00;;;;;;;7.48;100.00;101053.56;5075133;28;20040;-79
2023/10/17 06:48:07;;;;;;;41.58;18.30;;;;;;;7.62;100.00;101055.16;5058466;28;20036;-78
2023/10/17 06:51:29;;;;;;;31.52;17.35;;;;;;;7.72;100.00;101056.84;5071511;28;20478;-79
2023/10/17 06:53:15;;;;;;;38.45;18.60;;;;;;;7.80;100.00;101058.25;5073873;28;20033;-81
2023/10/17 06:55:44;;;;;;;33.65;16.98;;;;;;;7.89;100.00;101066.09;5078324;28;20144;-80
2023/10/17 06:58:11;;;;;;;32.05;16.10;;;;;;;7.95;100.00;101065.06;5094997;28;20028;-81
2023/10/17 07:00:49;;;;;;;32.85;16.23;;;;;;;8.03;100.00;101054.22;5077037;28;20024;-80
2023/10/17 07:03:34;;;;;;;33.38;15.25;;;;;;;8.20;100.00;101064.28;5078235;28;20082;-81
2023/10/17 07:06:16;;;;;;;31.55;18.35;;;;;;;8.37;100.00;101064.91;5078923;28;20024;-80
2023/10/17 07:08:42;;;;;;;26.20;14.07;;;;;;;8.55;100.00;101067.16;5094859;28;20158;-80
2023/10/17 07:14:10;;;;;;;34.90;16.17;;;;;;;8.88;100.00;101073.28;5078463;28;20032;-80
2023/10/17 07:16:41;;;;;;;28.58;15.70;;;;;;;9.03;100.00;101077.22;5095387;28;20056;-80
2023/10/17 07:21:56;;;;;;;30.23;16.08;;;;;;;9.29;100.00;101066.47;5076681;28;20032;-80
2023/10/17 07:24:23;;;;;;;33.97;15.77;;;;;;;9.40;100.00;101064.00;5091143;28;20027;-79
2023/10/17 07:26:54;;;;;;;28.67;14.70;;;;;;;9.62;100.00;101064.78;5076889;28;20097;-79
2023/10/17 07:29:23;;;;;;;27.52;14.63;;;;;;;9.75;100.00;101059.78;5094307;28;20081;-81
2023/10/17 07:32:02;;;;;;;33.63;17.15;;;;;;;9.85;100.00;101067.13;5076358;28;20024;-79
2023/10/17 07:34:52;;;;;;;33.00;15.05;;;;;;;9.92;100.00;101081.13;5078879;28;20046;-80
2023/10/17 07:37:38;;;;;;;25.52;14.55;;;;;;;9.98;100.00;101079.25;5094857;28;20027;-80
2023/10/17 07:42:40;;;;;;;33.60;14.55;;;;;;;10.18;100.00;101078.03;5094544;28;20106;-81
2023/10/17 07:45:14;;;;;;;26.75;14.10;;;;;;;10.25;100.00;101072.00;5094448;28;20377;-79
2023/10/17 07:47:42;;;;;;;26.67;14.32;;;;;;;10.36;100.00;101073.16;5076962;28;20028;-80
2023/10/17 07:50:13;;;;;;;28.30;13.95;;;;;;;10.49;100.00;101079.53;5075755;28;20046;-80
2023/10/17 07:52:43;;;;;;;33.33;13.75;;;;;;;10.56;100.00;101075.59;5076350;28;20024;-80
2023/10/17 07:55:23;;;;;;;33.10;14.63;;;;;;;10.58;100.00;101069.41;5073471;28;20043;-80
2023/10/17 07:57:53;;;;;;;30.50;13.70;;;;;;;10.68;100.00;101066.06;5094320;28;20040;-79
2023/10/17 08:00:56;;;;;;;25.88;13.98;;;;;;;10.71;100.00;101064.31;5076002;28;20024;-81
2023/10/17 08:03:17;;;;;;;26.67;13.95;;;;;;;10.76;100.00;101060.81;5089706;28;20071;-80
2023/10/17 08:08:41;;;;;;;25.50;13.35;;;;;;;11.14;100.00;101081.19;5082365;28;20059;-81
2023/10/17 08:11:31;;;;;;;20.45;11.95;;;;;;;11.28;100.00;101080.53;5078161;28;20063;-81
2023/10/17 08:14:01;;;;;;;21.20;11.88;;;;;;;11.44;100.00;101081.47;5094223;28;20055;-81
2023/10/17 08:16:29;;;;;;;19.45;11.43;;;;;;;11.58;100.00;101081.56;5076083;28;20431;-81
2023/10/17 08:19:21;;;;;;;19.08;10.85;;;;;;;11.60;100.00;101079.03;5094916;28;20024;-82
2023/10/17 08:21:58;;;;;;;17.48;10.30;;;;;;;11.62;100.00;101085.06;5093721;28;20031;-80
2023/10/17 08:24:40;;;;;;;21.88;11.45;;;;;;;11.65;100.00;101086.97;5094613;28;20503;-82
2023/10/17 08:27:17;;;;;;;17.08;10.15;;;;;;;11.79;100.00;101079.78;5094862;28;20028;-80
2023/10/17 08:29:48;;;;;;;23.45;11.45;;;;;;;11.99;100.00;101076.34;5094404;28;20028;-81
2023/10/17 08:32:38;;;;;;;18.95;12.02;;;;;;;12.16;100.00;101084.06;5093764;28;20458;-81
2023/10/17 08:35:20;;;;;;;22.13;11.82;;;;;;;12.35;100.00;101078.25;5094408;28;20020;-80
2023/10/17 08:37:47;;;;;;;18.08;9.82;;;;;;;12.53;100.00;101078.97;5094134;28;20107;-80
2023/10/17 08:40:31;;;;;;;17.08;10.32;;;;;;;12.69;100.00;101081.41;5093403;28;20461;-81
2023/10/17 08:43:01;;;;;;;16.15;9.38;;;;;;;12.87;100.00;101088.28;5093982;28;20059;-81
2023/10/17 08:45:27;;;;;;;20.05;10.00;;;;;;;13.04;100.00;101084.47;5094133;28;20088;-80
2023/10/17 08:48:00;;;;;;;16.77;10.48;;;;;;;13.14;100.00;101085.94;5076260;28;20028;-81
2023/10/17 08:50:37;;;;;;;16.52;9.57;;;;;;;13.19;100.00;101093.13;5093634;28;20028;-80
2023/10/17 08:53:07;;;;;;;21.23;9.95;;;;;;;13.22;100.00;101079.84;5076801;28;20058;-80
2023/10/17 08:55:33;;;;;;;19.20;9.70;;;;;;;13.24;100.00;101083.03;5075549;28;20079;-80
2023/10/17 08:57:59;;;;;;;21.13;9.93;;;;;;;13.23;100.00;101069.94;5094072;28;20350;-80
2023/10/17 09:03:37;;;;;;;19.52;9.05;;;;;;;12.95;100.00;101072.25;5039834;28;20034;-79
2023/10/17 09:11:31;;;;;;;15.13;8.55;;;;;;;12.99;100.00;101062.19;5097094;28;20144;-80
2023/10/17 09:17:16;;;;;;;17.05;8.95;;;;;;;13.08;100.00;101064.97;5034878;28;20486;-79
2023/10/17 09:19:53;;;;;;;17.55;11.00;;;;;;;13.18;100.00;101067.78;5077914;28;20036;-79
2023/10/17 09:22:20;;;;;;;14.45;9.45;;;;;;;13.33;100.00;101071.44;5078908;28;20381;-79
2023/10/17 09:24:49;;;;;;;16.33;9.63;;;;;;;13.50;100.00;101076.19;5096954;28;20028;-80
2023/10/17 09:27:17;;;;;;;16.60;10.30;;;;;;;13.66;100.00;101065.53;5097934;28;20103;-80
2023/10/17 09:29:50;;;;;;;15.88;9.95;;;;;;;13.63;100.00;101069.41;5096750;28;20088;-79
2023/10/17 09:32:46;;;;;;;19.95;11.38;;;;;;;13.55;100.00;101069.78;5097045;28;20373;-80
2023/10/17 09:35:24;;;;;;;17.33;9.32;;;;;;;13.54;100.00;101067.44;5076748;28;20392;-78
2023/10/17 09:37:52;;;;;;;13.45;9.60;;;;;;;13.60;100.00;101073.25;5079470;28;20028;-79
2023/10/17 09:40:35;;;;;;;14.20;9.02;;;;;;;13.71;100.00;101071.38;5078850;28;20138;-80
2023/10/17 09:43:03;;;;;;;16.52;8.93;;;;;;;13.80;100.00;101064.72;5079030;28;20024;-78
2023/10/17 09:45:36;;;;;;;16.92;7.97;;;;;;;13.87;100.00;101064.34;5096443;28;20489;-80
2023/10/17 09:48:08;;;;;;;14.23;7.93;;;;;;;13.90;100.00;101060.44;5097107;28;20032;-81
2023/10/17 09:50:35;;;;;;;15.07;8.10;;;;;;;13.92;100.00;101052.94;5078289;28;20110;-79
2023/10/17 09:53:18;;;;;;;14.95;8.15;;;;;;;13.94;100.00;101058.16;5078455;28;20587;-79
2023/10/17 09:55:47;;;;;;;12.82;8.85;;;;;;;13.99;100.00;101057.47;5095694;28;20044;-80
2023/10/17 09:58:28;;;;;;;15.20;8.23;;;;;;;13.99;100.00;101040.22;5078749;28;20047;-80
2023/10/17 10:01:35;;;;;;;16.35;8.48;;;;;;;14.20;100.00;101050.47;5079064;28;20016;-80
2023/10/17 10:04:01;;;;;;;17.65;8.23;;;;;;;14.34;100.00;101043.09;5062011;28;20032;-81
2023/10/17 10:06:32;;;;;;;13.23;7.82;;;;;;;14.39;100.00;101048.13;5096624;28;20032;-82
2023/10/17 10:09:15;;;;;;;10.43;6.65;;;;;;;14.45;100.00;101031.75;5097500;28;20533;-79
2023/10/17 10:11:53;;;;;;;13.00;6.80;;;;;;;14.53;100.00;101041.53;5077636;28;20381;-82
2023/10/17 10:14:30;;;;;;;13.65;7.22;;;;;;;14.60;100.00;101032.50;5078642;28;20435;-83
2023/10/17 10:17:03;;;;;;;10.52;7.47;;;;;;;14.59;100.00;101030.91;5096235;28;20135;-79
2023/10/17 10:19:43;;;;;;;7.88;6.05;;;;;;;14.64;100.00;101024.44;5078792;28;20038;-79
2023/10/17 10:22:12;;;;;;;9.75;5.45;;;;;;;14.81;100.00;101022.56;5096318;28;20020;-80
2023/10/17 10:24:41;;;;;;;8.20;5.55;;;;;;;15.02;100.00;101020.44;5096065;28;20146;-79
2023/10/17 10:27:27;;;;;;;7.30;4.95;;;;;;;15.19;100.00;101020.63;5077690;28;20039;-82
2023/10/17 10:30:22;;;;;;;7.97;5.07;;;;;;;15.34;100.00;101014.75;5097529;28;20035;-82
2023/10/17 10:32:50;;;;;;;9.55;5.35;;;;;;;15.45;100.00;101012.78;5078581;28;20040;-83
2023/10/17 10:35:17;;;;;;;7.70;5.50;;;;;;;15.59;100.00;101008.19;5098882;28;20024;-80
2023/10/17 10:37:53;;;;;;;7.93;5.68;;;;;;;15.67;100.00;101001.47;5080004;28;20020;-80
2023/10/17 10:40:40;;;;;;;9.30;5.60;;;;;;;15.75;100.00;100996.03;5097879;28;20027;-79
2023/10/17 10:43:11;;;;;;;8.90;5.38;;;;;;;15.65;100.00;100986.00;5095001;28;20393;-81
2023/10/17 10:45:52;;;;;;;7.00;4.95;;;;;;;15.61;100.00;100994.09;5095930;28;20028;-82
2023/10/17 10:48:18;;;;;;;5.97;5.20;;;;;;;15.60;100.00;100984.66;5095664;28;20045;-83
2023/10/17 10:50:47;;;;;;;6.18;4.43;;;;;;;15.56;100.00;100969.63;5077526;28;20055;-81
2023/10/17 10:53:24;;;;;;;7.60;5.00;;;;;;;15.66;100.00;100978.94;5091602;28;20074;-79
2023/10/17 10:55:56;;;;;;;10.00;4.53;;;;;;;15.68;100.00;100977.09;5094839;28;20082;-80
2023/10/17 10:58:23;;;;;;;7.45;4.18;;;;;;;15.55;100.00;100970.97;5094955;28;20426;-80
2023/10/17 11:00:49;;;;;;;6.03;3.97;;;;;;;15.30;100.00;100968.91;5094511;28;20087;-78
2023/10/17 11:03:18;;;;;;;7.22;4.03;;;;;;;15.10;100.00;100966.88;5060509;28;20426;-80
2023/10/17 11:05:52;;;;;;;4.90;4.20;;;;;;;14.99;100.00;100969.66;5095006;28;20027;-79
2023/10/17 11:08:22;;;;;;;6.28;4.30;;;;;;;14.85;100.00;100956.16;5076874;28;20036;-81
2023/10/17 11:10:50;;;;;;;5.35;4.25;;;;;;;14.69;100.00;100957.56;5095113;28;20068;-81
2023/10/17 11:13:32;;;;;;;7.25;4.78;;;;;;;14.57;100.00;100967.34;5077606;28;20028;-81
2023/10/17 11:15:59;;;;;;;6.57;4.50;;;;;;;14.46;100.00;100963.53;5077357;28;20388;-79
2023/10/17 11:18:26;;;;;;;5.28;4.22;;;;;;;14.32;100.00;100948.72;5095565;28;20454;-81
2023/10/17 11:20:57;;;;;;;11.07;3.95;;;;;;;14.22;100.00;100952.25;5060428;28;20028;-79
2023/10/17 11:23:57;;;;;;;6.03;3.80;;;;;;;14.20;100.00;100957.69;5093719;28;20039;-80
2023/10/17 11:26:25;;;;;;;4.65;3.05;;;;;;;14.18;100.00;100954.56;5094006;28;20465;-81
2023/10/17 11:28:54;;;;;;;5.75;3.65;;;;;;;14.32;100.00;100940.09;5076523;28;20032;-81
2023/10/17 11:31:24;;;;;;;6.43;4.32;;;;;;;14.56;100.00;100928.34;5094202;28;20121;-81
2023/10/17 11:34:07;;;;;;;5.38;3.78;;;;;;;14.71;100.00;100936.91;5093736;28;20477;-80
2023/10/17 11:37:02;;;;;;;5.90;4.40;;;;;;;14.89;100.00;100930.03;5094518;28;20032;-79
2023/10/17 11:39:42;;;;;;;4.95;3.67;;;;;;;15.13;100.00;100913.25;5093934;28;20465;-80
2023/10/17 11:42:08;;;;;;;5.82;3.10;;;;;;;15.37;100.00;100921.56;5094340;28;20028;-81
2023/10/17 11:44:42;;;;;;;4.70;3.25;;;;;;;15.54;100.00;100914.63;5077391;28;20059;-81
2023/10/17 11:47:22;;;;;;;6.07;3.15;;;;;;;15.68;100.00;100912.94;5093787;28;20166;-80
2023/10/17 11:49:56;;;;;;;8.20;3.55;;;;;;;15.85;100.00;100910.94;5093815;28;20024;-81
2023/10/17 11:52:24;;;;;;;7.85;3.25;;;;;;;16.03;100.00;100912.59;5094388;28;20035;-81
2023/10/17 11:55:04;;;;;;;6.28;3.40;;;;;;;16.15;100.00;100904.81;5060675;28;20036;-81
2023/10/17 11:57:31;;;;;;;8.30;4.10;;;;;;;16.25;100.00;100903.28;5095437;28;20496;-82
2023/10/17 12:02:42;;;;;;;4.15;3.22;;;;;;;16.06;100.00;100900.81;5097059;28;20636;-81
2023/10/17 12:05:17;;;;;;;4.88;3.20;;;;;;;16.07;100.00;100896.63;5095784;28;20024;-81
2023/10/17 12:07:49;;;;;;;5.80;3.22;;;;;;;16.12;99.75;100895.88;5078058;28;20032;-81
2023/10/17 12:10:36;;;;;;;5.72;3.20;;;;;;;16.19;100.00;100880.19;5078323;28;20534;-83
2023/10/17 12:13:07;;;;;;;4.15;2.78;;;;;;;16.36;98.23;100888.88;5094647;28;20020;-80
2023/10/17 12:15:34;;;;;;;8.23;2.63;;;;;;;16.25;93.32;100871.56;5096610;28;20481;-81
2023/10/17 12:18:00;;;;;;;3.72;2.53;;;;;;;16.27;92.27;100881.25;5075938;28;20039;-80
2023/10/17 12:20:27;;;;;;;4.10;2.30;;;;;;;16.16;93.45;100889.06;5093873;28;20465;-83
2023/10/17 12:23:00;;;;;;;5.07;2.42;;;;;;;16.08;94.33;100883.00;5094661;28;20074;-85
2023/10/17 12:25:29;;;;;;;2.67;1.95;;;;;;;15.98;93.96;100884.53;5094820;28;20111;-86
2023/10/17 12:27:56;;;;;;;4.78;2.70;;;;;;;15.88;92.26;100886.84;5076191;28;20024;-82
2023/10/17 12:30:25;;;;;;;5.82;2.53;;;;;;;15.73;93.72;100882.56;5076623;28;20480;-85
2023/10/17 12:32:55;;;;;;;8.18;3.67;;;;;;;15.30;95.13;100855.81;5094959;28;20107;-87
2023/10/17 12:35:21;;;;;;;11.57;4.75;;;;;;;15.39;98.78;100878.66;5096369;28;20081;-82
2023/10/17 12:37:50;;;;;;;10.23;5.45;;;;;;;15.20;100.00;100884.81;5101235;28;20024;-83
2023/10/17 12:40:22;;;;;;;5.82;3.55;;;;;;;14.85;100.00;100855.44;5094054;28;20024;-84
2023/10/17 12:42:56;;;;;;;;;;;;;;;14.86;100.00;100880.06;5094147;28;20048;-84
2023/10/17 12:45:24;;;;;;;5.53;3.90;;;;;;;14.74;100.00;100873.38;5108207;28;19911;-84
2023/10/17 12:47:51;;;;;;;10.13;4.80;;;;;;;14.62;100.00;100868.84;5091131;28;20032;-85
2023/10/17 12:50:19;;;;;;;6.68;3.60;;;;;;;14.49;100.00;100864.72;5111706;28;20027;-83
2023/10/17 12:52:49;;;;;;;10.98;4.43;;;;;;;14.46;100.00;100868.63;5096497;28;20020;-87
2023/10/17 12:55:19;;;;;;;7.75;4.68;;;;;;;14.46;100.00;100871.50;5104803;28;20047;-86
2023/10/17 12:57:45;;;;;;;11.15;5.20;;;;;;;14.43;100.00;100864.66;5083090;28;20040;-84
2023/10/17 13:00:14;;;;;;;4.60;3.35;;;;;;;14.30;100.00;100850.69;5100999;28;20043;-85
2023/10/17 13:02:41;;;;;;;8.68;4.22;;;;;;;14.35;100.00;100864.31;5098084;28;20036;-86
2023/10/17 13:05:11;;;;;;;5.85;3.35;;;;;;;14.32;100.00;100862.47;5079694;28;20024;-84
2023/10/17 13:07:38;;;;;;;3.97;2.88;;;;;;;14.21;100.00;100856.59;5076751;28;20173;-81
2023/10/17 13:10:07;;;;;;;8.07;3.47;;;;;;;14.14;100.00;100848.41;5062675;28;20036;-82
2023/10/17 13:12:33;;;;;;;3.80;2.83;;;;;;;14.13;100.00;100861.22;5078989;28;20059;-80
2023/10/17 13:15:01;;;;;;;10.27;4.47;;;;;;;14.03;100.00;100859.78;5097018;28;20414;-82
2023/10/17 13:17:28;;;;;;;8.43;4.80;;;;;;;14.03;100.00;100859.00;5062456;28;20032;-83
2023/10/17 13:19:55;;;;;;;5.72;3.00;;;;;;;13.95;100.00;100861.50;5098313;28;20031;-78
2023/10/17 13:22:25;;;;;;;8.63;4.20;;;;;;;13.87;100.00;100864.00;5078647;28;20103;-77
2023/10/17 13:24:51;;;;;;;6.50;3.33;;;;;;;13.73;100.00;100846.84;5096813;28;20047;-81
2023/10/17 13:27:17;;;;;;;5.90;3.10;;;;;;;13.70;100.00;100859.31;5095034;28;20065;-80
2023/10/17 13:29:43;;;;;;;4.90;2.90;;;;;;;13.58;100.00;100855.53;5061777;28;20038;-81
2023/10/17 13:32:08;;;;;;;9.95;3.20;;;;;;;13.48;100.00;100857.69;5077784;28;20034;-80
2023/10/17 13:34:35;;;;;;;5.95;3.83;;;;;;;13.43;100.00;100857.63;5096125;28;20099;-81
2023/10/17 13:37:05;;;;;;;6.85;3.60;;;;;;;13.32;100.00;100855.38;5077924;28;20035;-81
2023/10/17 13:39:36;;;;;;;12.90;4.47;;;;;;;13.30;100.00;100854.25;5077518;28;20036;-82